sensor_id;sensor_type;location;lat;lon;timestamp;temperature;humidity
76967;DHT22;65904;52.278;20.972;2023-01-25T00:01:32;1.80;97.70
76967;DHT22;65904;52.278;20.972;2023-01-25T00:04:18;1.80;97.50
76967;DHT22;65904;52.278;20.972;2023-01-25T00:07:04;1.80;97.40
76967;DHT22;65904;52.278;20.972;2023-01-25T00:09:52;1.80;97.00
76967;DHT22;65904;52.278;20.972;2023-01-25T00:12:38;1.80;97.10
76967;DHT22;65904;52.278;20.972;2023-01-25T00:15:24;1.70;96.80
76967;DHT22;65904;52.278;20.972;2023-01-25T00:18:10;1.70;96.60
76967;DHT22;65904;52.278;20.972;2023-01-25T00:20:57;1.70;96.60
76967;DHT22;65904;52.278;20.972;2023-01-25T00:23:43;1.70;96.60
76967;DHT22;65904;52.278;20.972;2023-01-25T00:26:32;1.70;96.60
76967;DHT22;65904;52.278;20.972;2023-01-25T00:29:18;1.70;96.60
76967;DHT22;65904;52.278;20.972;2023-01-25T00:32:32;1.70;96.60
76967;DHT22;65904;52.278;20.972;2023-01-25T00:35:28;1.60;96.60
76967;DHT22;65904;52.278;20.972;2023-01-25T00:38:26;1.60;96.50
76967;DHT22;65904;52.278;20.972;2023-01-25T00:41:13;1.60;96.60
76967;DHT22;65904;52.278;20.972;2023-01-25T00:44:00;1.60;96.60
76967;DHT22;65904;52.278;20.972;2023-01-25T00:46:47;1.50;96.80
76967;DHT22;65904;52.278;20.972;2023-01-25T00:49:33;1.50;96.50
76967;DHT22;65904;52.278;20.972;2023-01-25T00:52:19;1.50;96.10
76967;DHT22;65904;52.278;20.972;2023-01-25T00:55:07;1.50;95.70
76967;DHT22;65904;52.278;20.972;2023-01-25T00:57:53;1.50;95.80
76967;DHT22;65904;52.278;20.972;2023-01-25T01:00:41;1.50;95.70
76967;DHT22;65904;52.278;20.972;2023-01-25T01:03:27;1.50;95.70
76967;DHT22;65904;52.278;20.972;2023-01-25T01:06:13;1.40;95.70
76967;DHT22;65904;52.278;20.972;2023-01-25T01:08:59;1.40;95.60
76967;DHT22;65904;52.278;20.972;2023-01-25T01:11:45;1.40;95.80
76967;DHT22;65904;52.278;20.972;2023-01-25T01:14:31;1.30;95.70
76967;DHT22;65904;52.278;20.972;2023-01-25T01:17:19;1.30;95.80
76967;DHT22;65904;52.278;20.972;2023-01-25T01:20:05;1.20;96.10
76967;DHT22;65904;52.278;20.972;2023-01-25T01:22:52;1.20;95.40
76967;DHT22;65904;52.278;20.972;2023-01-25T01:25:38;1.20;96.30
76967;DHT22;65904;52.278;20.972;2023-01-25T01:28:27;1.10;96.20
76967;DHT22;65904;52.278;20.972;2023-01-25T01:31:15;1.10;95.70
76967;DHT22;65904;52.278;20.972;2023-01-25T01:34:11;1.10;96.00
76967;DHT22;65904;52.278;20.972;2023-01-25T01:36:58;1.10;95.70
76967;DHT22;65904;52.278;20.972;2023-01-25T01:39:44;1.10;95.60
76967;DHT22;65904;52.278;20.972;2023-01-25T01:42:30;1.20;95.50
76967;DHT22;65904;52.278;20.972;2023-01-25T01:45:52;1.10;95.50
76967;DHT22;65904;52.278;20.972;2023-01-25T01:48:46;1.10;95.60
76967;DHT22;65904;52.278;20.972;2023-01-25T01:51:41;1.10;95.70
76967;DHT22;65904;52.278;20.972;2023-01-25T01:54:36;1.10;95.60
76967;DHT22;65904;52.278;20.972;2023-01-25T01:57:30;1.10;95.80
76967;DHT22;65904;52.278;20.972;2023-01-25T02:00:20;1.00;95.80
76967;DHT22;65904;52.278;20.972;2023-01-25T02:03:08;1.00;95.70
76967;DHT22;65904;52.278;20.972;2023-01-25T02:06:00;1.00;95.80
76967;DHT22;65904;52.278;20.972;2023-01-25T02:08:51;1.00;95.90
76967;DHT22;65904;52.278;20.972;2023-01-25T02:11:39;1.00;96.00
76967;DHT22;65904;52.278;20.972;2023-01-25T02:14:27;1.00;95.70
76967;DHT22;65904;52.278;20.972;2023-01-25T02:17:14;1.00;95.60
76967;DHT22;65904;52.278;20.972;2023-01-25T02:20:05;1.00;95.50
76967;DHT22;65904;52.278;20.972;2023-01-25T02:22:55;0.90;95.50
76967;DHT22;65904;52.278;20.972;2023-01-25T02:25:45;0.90;95.50
76967;DHT22;65904;52.278;20.972;2023-01-25T02:28:35;0.90;95.80
76967;DHT22;65904;52.278;20.972;2023-01-25T02:31:22;0.90;95.60
76967;DHT22;65904;52.278;20.972;2023-01-25T02:34:08;0.90;95.90
76967;DHT22;65904;52.278;20.972;2023-01-25T02:36:59;0.90;95.80
76967;DHT22;65904;52.278;20.972;2023-01-25T02:39:45;0.80;95.80
76967;DHT22;65904;52.278;20.972;2023-01-25T02:42:33;0.80;95.80
76967;DHT22;65904;52.278;20.972;2023-01-25T02:45:26;0.80;96.00
76967;DHT22;65904;52.278;20.972;2023-01-25T02:48:14;0.80;96.20
76967;DHT22;65904;52.278;20.972;2023-01-25T02:51:00;0.70;96.00
76967;DHT22;65904;52.278;20.972;2023-01-25T02:53:46;0.70;96.10
76967;DHT22;65904;52.278;20.972;2023-01-25T02:56:33;0.70;96.10
76967;DHT22;65904;52.278;20.972;2023-01-25T02:59:21;0.70;96.10
76967;DHT22;65904;52.278;20.972;2023-01-25T03:02:10;0.70;95.90
76967;DHT22;65904;52.278;20.972;2023-01-25T03:04:58;0.60;96.00
76967;DHT22;65904;52.278;20.972;2023-01-25T03:07:44;0.60;95.80
76967;DHT22;65904;52.278;20.972;2023-01-25T03:10:31;0.60;96.00
76967;DHT22;65904;52.278;20.972;2023-01-25T03:13:17;0.70;96.00
76967;DHT22;65904;52.278;20.972;2023-01-25T03:16:07;0.60;96.00
76967;DHT22;65904;52.278;20.972;2023-01-25T03:18:54;0.60;96.10
76967;DHT22;65904;52.278;20.972;2023-01-25T03:21:42;0.50;96.10
76967;DHT22;65904;52.278;20.972;2023-01-25T03:24:29;0.50;96.10
76967;DHT22;65904;52.278;20.972;2023-01-25T03:27:15;0.50;96.10
76967;DHT22;65904;52.278;20.972;2023-01-25T03:30:18;0.50;95.70
76967;DHT22;65904;52.278;20.972;2023-01-25T03:33:06;0.50;96.00
76967;DHT22;65904;52.278;20.972;2023-01-25T03:35:53;0.50;95.80
76967;DHT22;65904;52.278;20.972;2023-01-25T03:38:40;0.40;95.70
76967;DHT22;65904;52.278;20.972;2023-01-25T03:41:27;0.40;95.80
76967;DHT22;65904;52.278;20.972;2023-01-25T03:44:16;0.30;96.00
76967;DHT22;65904;52.278;20.972;2023-01-25T03:47:05;0.30;96.20
76967;DHT22;65904;52.278;20.972;2023-01-25T03:49:53;0.40;95.80
76967;DHT22;65904;52.278;20.972;2023-01-25T03:52:40;0.30;96.00
76967;DHT22;65904;52.278;20.972;2023-01-25T03:55:29;0.30;96.00
76967;DHT22;65904;52.278;20.972;2023-01-25T03:58:17;0.40;96.00
76967;DHT22;65904;52.278;20.972;2023-01-25T04:01:05;0.40;96.10
76967;DHT22;65904;52.278;20.972;2023-01-25T04:03:52;0.40;96.00
76967;DHT22;65904;52.278;20.972;2023-01-25T04:06:39;0.40;95.80
76967;DHT22;65904;52.278;20.972;2023-01-25T04:09:26;0.30;95.90
76967;DHT22;65904;52.278;20.972;2023-01-25T04:12:15;0.30;96.60
76967;DHT22;65904;52.278;20.972;2023-01-25T04:15:01;0.30;96.70
76967;DHT22;65904;52.278;20.972;2023-01-25T04:17:48;0.30;96.80
76967;DHT22;65904;52.278;20.972;2023-01-25T04:20:39;0.30;96.70
76967;DHT22;65904;52.278;20.972;2023-01-25T04:23:27;0.30;96.80
76967;DHT22;65904;52.278;20.972;2023-01-25T04:26:15;0.30;96.90
76967;DHT22;65904;52.278;20.972;2023-01-25T04:29:09;0.30;96.90
76967;DHT22;65904;52.278;20.972;2023-01-25T04:31:56;0.20;96.90
76967;DHT22;65904;52.278;20.972;2023-01-25T04:34:43;0.20;96.90
76967;DHT22;65904;52.278;20.972;2023-01-25T04:37:33;0.20;97.10
76967;DHT22;65904;52.278;20.972;2023-01-25T04:40:22;0.10;97.20
76967;DHT22;65904;52.278;20.972;2023-01-25T04:43:10;0.00;97.40
76967;DHT22;65904;52.278;20.972;2023-01-25T04:46:00;0.00;97.30
76967;DHT22;65904;52.278;20.972;2023-01-25T04:48:48;0.00;97.20
76967;DHT22;65904;52.278;20.972;2023-01-25T04:51:35;0.00;97.50
76967;DHT22;65904;52.278;20.972;2023-01-25T04:54:21;-0.10;97.50
76967;DHT22;65904;52.278;20.972;2023-01-25T04:57:09;-0.10;97.60
76967;DHT22;65904;52.278;20.972;2023-01-25T04:59:57;-0.10;97.80
76967;DHT22;65904;52.278;20.972;2023-01-25T05:02:44;-0.10;97.80
76967;DHT22;65904;52.278;20.972;2023-01-25T05:05:31;0.00;97.60
76967;DHT22;65904;52.278;20.972;2023-01-25T05:08:20;-0.10;97.50
76967;DHT22;65904;52.278;20.972;2023-01-25T05:11:06;-0.10;97.70
76967;DHT22;65904;52.278;20.972;2023-01-25T05:14:17;-0.10;97.80
76967;DHT22;65904;52.278;20.972;2023-01-25T05:17:04;-0.10;97.80
76967;DHT22;65904;52.278;20.972;2023-01-25T05:19:50;-0.10;97.70
76967;DHT22;65904;52.278;20.972;2023-01-25T05:22:39;-0.20;97.40
76967;DHT22;65904;52.278;20.972;2023-01-25T05:25:25;-0.20;97.40
76967;DHT22;65904;52.278;20.972;2023-01-25T05:28:31;-0.30;97.50
76967;DHT22;65904;52.278;20.972;2023-01-25T05:31:41;-0.30;97.70
76967;DHT22;65904;52.278;20.972;2023-01-25T05:34:27;-0.40;97.70
76967;DHT22;65904;52.278;20.972;2023-01-25T05:37:16;-0.40;97.80
76967;DHT22;65904;52.278;20.972;2023-01-25T05:40:05;-0.40;97.90
76967;DHT22;65904;52.278;20.972;2023-01-25T05:42:56;-0.30;97.80
76967;DHT22;65904;52.278;20.972;2023-01-25T05:45:51;-0.40;97.70
76967;DHT22;65904;52.278;20.972;2023-01-25T05:48:39;-0.40;97.70
76967;DHT22;65904;52.278;20.972;2023-01-25T05:51:26;-0.40;97.70
76967;DHT22;65904;52.278;20.972;2023-01-25T05:54:14;-0.50;97.60
76967;DHT22;65904;52.278;20.972;2023-01-25T05:57:06;-0.50;97.80
76967;DHT22;65904;52.278;20.972;2023-01-25T05:59:53;-0.40;97.70
76967;DHT22;65904;52.278;20.972;2023-01-25T06:02:39;-0.40;97.40
76967;DHT22;65904;52.278;20.972;2023-01-25T06:05:28;-0.50;97.40
76967;DHT22;65904;52.278;20.972;2023-01-25T06:08:14;-0.50;97.50
76967;DHT22;65904;52.278;20.972;2023-01-25T06:11:11;-0.60;97.80
76967;DHT22;65904;52.278;20.972;2023-01-25T06:14:01;-0.60;97.80
76967;DHT22;65904;52.278;20.972;2023-01-25T06:16:49;-0.60;97.70
76967;DHT22;65904;52.278;20.972;2023-01-25T06:20:08;-0.60;97.80
76967;DHT22;65904;52.278;20.972;2023-01-25T06:22:57;-0.60;97.80
76967;DHT22;65904;52.278;20.972;2023-01-25T06:25:43;-0.60;97.80
76967;DHT22;65904;52.278;20.972;2023-01-25T06:28:30;-0.60;97.90
76967;DHT22;65904;52.278;20.972;2023-01-25T06:31:17;-0.60;97.80
76967;DHT22;65904;52.278;20.972;2023-01-25T06:34:04;-0.60;98.10
76967;DHT22;65904;52.278;20.972;2023-01-25T06:36:51;-0.50;97.70
76967;DHT22;65904;52.278;20.972;2023-01-25T06:39:39;-0.60;97.70
76967;DHT22;65904;52.278;20.972;2023-01-25T06:42:25;-0.60;97.70
76967;DHT22;65904;52.278;20.972;2023-01-25T06:45:11;-0.50;97.60
76967;DHT22;65904;52.278;20.972;2023-01-25T06:47:57;-0.50;97.40
76967;DHT22;65904;52.278;20.972;2023-01-25T06:50:44;-0.60;97.30
76967;DHT22;65904;52.278;20.972;2023-01-25T06:53:32;-0.60;97.40
76967;DHT22;65904;52.278;20.972;2023-01-25T06:56:21;-0.60;97.60
76967;DHT22;65904;52.278;20.972;2023-01-25T06:59:07;-0.50;97.50
76967;DHT22;65904;52.278;20.972;2023-01-25T07:01:54;-0.60;97.40
76967;DHT22;65904;52.278;20.972;2023-01-25T07:04:40;-0.50;97.50
76967;DHT22;65904;52.278;20.972;2023-01-25T07:07:26;-0.50;97.30
76967;DHT22;65904;52.278;20.972;2023-01-25T07:10:13;-0.50;97.40
76967;DHT22;65904;52.278;20.972;2023-01-25T07:13:00;-0.50;97.40
76967;DHT22;65904;52.278;20.972;2023-01-25T07:15:52;-0.50;97.60
76967;DHT22;65904;52.278;20.972;2023-01-25T07:18:38;-0.50;97.30
76967;DHT22;65904;52.278;20.972;2023-01-25T07:21:24;-0.50;97.20
76967;DHT22;65904;52.278;20.972;2023-01-25T07:24:13;-0.50;97.40
76967;DHT22;65904;52.278;20.972;2023-01-25T07:26:59;-0.60;97.20
76967;DHT22;65904;52.278;20.972;2023-01-25T07:29:47;-0.60;97.20
76967;DHT22;65904;52.278;20.972;2023-01-25T07:32:33;-0.60;97.40
76967;DHT22;65904;52.278;20.972;2023-01-25T07:35:19;-0.60;97.40
76967;DHT22;65904;52.278;20.972;2023-01-25T07:38:06;-0.60;97.30
76967;DHT22;65904;52.278;20.972;2023-01-25T07:40:52;-0.60;97.00
76967;DHT22;65904;52.278;20.972;2023-01-25T07:43:38;-0.60;96.80
76967;DHT22;65904;52.278;20.972;2023-01-25T07:46:29;-0.60;96.90
76967;DHT22;65904;52.278;20.972;2023-01-25T07:49:15;-0.60;97.00
76967;DHT22;65904;52.278;20.972;2023-01-25T07:52:02;-0.60;97.00
76967;DHT22;65904;52.278;20.972;2023-01-25T07:54:48;-0.60;97.10
76967;DHT22;65904;52.278;20.972;2023-01-25T07:57:35;-0.60;97.20
76967;DHT22;65904;52.278;20.972;2023-01-25T08:00:21;-0.50;96.90
76967;DHT22;65904;52.278;20.972;2023-01-25T08:03:09;-0.50;96.80
76967;DHT22;65904;52.278;20.972;2023-01-25T08:06:14;-0.50;96.70
76967;DHT22;65904;52.278;20.972;2023-01-25T08:09:02;-0.50;96.80
76967;DHT22;65904;52.278;20.972;2023-01-25T08:11:48;-0.50;96.60
76967;DHT22;65904;52.278;20.972;2023-01-25T08:14:34;-0.50;97.00
76967;DHT22;65904;52.278;20.972;2023-01-25T08:17:22;-0.50;96.80
76967;DHT22;65904;52.278;20.972;2023-01-25T08:20:10;-0.50;96.60
76967;DHT22;65904;52.278;20.972;2023-01-25T08:22:57;-0.50;96.40
76967;DHT22;65904;52.278;20.972;2023-01-25T08:25:44;-0.40;96.60
76967;DHT22;65904;52.278;20.972;2023-01-25T08:28:30;-0.50;96.50
76967;DHT22;65904;52.278;20.972;2023-01-25T08:31:19;-0.50;96.40
76967;DHT22;65904;52.278;20.972;2023-01-25T08:34:06;-0.40;96.60
76967;DHT22;65904;52.278;20.972;2023-01-25T08:36:53;-0.50;96.60
76967;DHT22;65904;52.278;20.972;2023-01-25T08:39:39;-0.40;96.10
76967;DHT22;65904;52.278;20.972;2023-01-25T08:42:26;-0.40;96.00
76967;DHT22;65904;52.278;20.972;2023-01-25T08:45:11;-0.40;96.10
76967;DHT22;65904;52.278;20.972;2023-01-25T08:47:57;-0.40;96.20
76967;DHT22;65904;52.278;20.972;2023-01-25T08:50:47;-0.40;96.20
76967;DHT22;65904;52.278;20.972;2023-01-25T08:53:35;-0.30;95.90
76967;DHT22;65904;52.278;20.972;2023-01-25T08:56:21;-0.30;95.80
76967;DHT22;65904;52.278;20.972;2023-01-25T08:59:10;-0.30;95.90
76967;DHT22;65904;52.278;20.972;2023-01-25T09:01:56;-0.30;95.80
76967;DHT22;65904;52.278;20.972;2023-01-25T09:04:42;-0.30;95.80
76967;DHT22;65904;52.278;20.972;2023-01-25T09:07:28;-0.30;95.70
76967;DHT22;65904;52.278;20.972;2023-01-25T09:10:17;-0.30;96.00
76967;DHT22;65904;52.278;20.972;2023-01-25T09:13:04;-0.30;96.00
76967;DHT22;65904;52.278;20.972;2023-01-25T09:15:50;-0.20;95.70
76967;DHT22;65904;52.278;20.972;2023-01-25T09:18:37;-0.20;95.70
76967;DHT22;65904;52.278;20.972;2023-01-25T09:21:23;-0.30;95.70
76967;DHT22;65904;52.278;20.972;2023-01-25T09:24:09;-0.30;95.50
76967;DHT22;65904;52.278;20.972;2023-01-25T09:26:58;-0.30;95.30
76967;DHT22;65904;52.278;20.972;2023-01-25T09:29:44;-0.20;95.40
76967;DHT22;65904;52.278;20.972;2023-01-25T09:32:30;-0.30;95.50
76967;DHT22;65904;52.278;20.972;2023-01-25T09:35:16;-0.30;95.50
76967;DHT22;65904;52.278;20.972;2023-01-25T09:38:03;-0.30;95.50
76967;DHT22;65904;52.278;20.972;2023-01-25T09:41:02;-0.30;95.70
76967;DHT22;65904;52.278;20.972;2023-01-25T09:44:13;-0.30;95.60
76967;DHT22;65904;52.278;20.972;2023-01-25T09:47:03;-0.30;95.70
76967;DHT22;65904;52.278;20.972;2023-01-25T09:50:03;-0.20;95.70
76967;DHT22;65904;52.278;20.972;2023-01-25T09:53:15;-0.10;95.80
76967;DHT22;65904;52.278;20.972;2023-01-25T09:56:07;-0.10;95.50
76967;DHT22;65904;52.278;20.972;2023-01-25T09:58:58;-0.10;95.50
76967;DHT22;65904;52.278;20.972;2023-01-25T10:01:47;-0.10;95.30
76967;DHT22;65904;52.278;20.972;2023-01-25T10:04:39;-0.10;95.50
76967;DHT22;65904;52.278;20.972;2023-01-25T10:07:29;-0.10;95.60
76967;DHT22;65904;52.278;20.972;2023-01-25T10:10:19;-0.10;95.30
76967;DHT22;65904;52.278;20.972;2023-01-25T10:13:09;-0.10;95.20
76967;DHT22;65904;52.278;20.972;2023-01-25T10:16:02;-0.10;95.30
76967;DHT22;65904;52.278;20.972;2023-01-25T10:18:55;-0.10;95.30
76967;DHT22;65904;52.278;20.972;2023-01-25T10:21:47;-0.10;95.60
76967;DHT22;65904;52.278;20.972;2023-01-25T10:24:47;-0.10;95.50
76967;DHT22;65904;52.278;20.972;2023-01-25T10:27:42;-0.10;95.40
76967;DHT22;65904;52.278;20.972;2023-01-25T10:30:35;0.00;95.30
76967;DHT22;65904;52.278;20.972;2023-01-25T10:33:25;0.00;95.20
76967;DHT22;65904;52.278;20.972;2023-01-25T10:36:14;0.00;95.50
76967;DHT22;65904;52.278;20.972;2023-01-25T10:39:00;-0.10;95.40
76967;DHT22;65904;52.278;20.972;2023-01-25T10:41:54;0.00;95.50
76967;DHT22;65904;52.278;20.972;2023-01-25T10:44:43;0.00;95.50
76967;DHT22;65904;52.278;20.972;2023-01-25T10:47:33;0.00;95.70
76967;DHT22;65904;52.278;20.972;2023-01-25T10:50:45;0.10;95.70
76967;DHT22;65904;52.278;20.972;2023-01-25T10:53:33;0.10;95.60
76967;DHT22;65904;52.278;20.972;2023-01-25T10:56:24;0.00;95.30
76967;DHT22;65904;52.278;20.972;2023-01-25T10:59:17;0.00;95.30
76967;DHT22;65904;52.278;20.972;2023-01-25T11:02:39;0.00;95.60
76967;DHT22;65904;52.278;20.972;2023-01-25T11:05:28;0.00;95.80
76967;DHT22;65904;52.278;20.972;2023-01-25T11:08:22;0.00;95.80
76967;DHT22;65904;52.278;20.972;2023-01-25T11:11:21;0.00;95.80
76967;DHT22;65904;52.278;20.972;2023-01-25T11:14:15;0.00;95.80
76967;DHT22;65904;52.278;20.972;2023-01-25T11:17:04;0.00;95.80
76967;DHT22;65904;52.278;20.972;2023-01-25T11:20:06;0.10;95.70
76967;DHT22;65904;52.278;20.972;2023-01-25T11:22:54;0.00;95.50
76967;DHT22;65904;52.278;20.972;2023-01-25T11:25:41;0.00;95.70
76967;DHT22;65904;52.278;20.972;2023-01-25T11:28:28;0.10;95.50
76967;DHT22;65904;52.278;20.972;2023-01-25T11:31:16;0.10;95.80
76967;DHT22;65904;52.278;20.972;2023-01-25T11:34:08;0.00;95.70
76967;DHT22;65904;52.278;20.972;2023-01-25T11:37:14;0.00;95.70
76967;DHT22;65904;52.278;20.972;2023-01-25T11:40:12;-0.10;95.80
76967;DHT22;65904;52.278;20.972;2023-01-25T11:43:11;0.00;95.80
76967;DHT22;65904;52.278;20.972;2023-01-25T11:46:13;0.00;95.80
76967;DHT22;65904;52.278;20.972;2023-01-25T11:49:22;0.10;95.90
76967;DHT22;65904;52.278;20.972;2023-01-25T11:52:20;0.20;95.70
76967;DHT22;65904;52.278;20.972;2023-01-25T11:55:20;0.20;95.50
76967;DHT22;65904;52.278;20.972;2023-01-25T11:58:23;0.10;95.50
76967;DHT22;65904;52.278;20.972;2023-01-25T12:01:20;0.20;95.50
76967;DHT22;65904;52.278;20.972;2023-01-25T12:04:35;0.20;95.70
76967;DHT22;65904;52.278;20.972;2023-01-25T12:07:33;0.10;95.50
76967;DHT22;65904;52.278;20.972;2023-01-25T12:10:30;0.00;95.80
76967;DHT22;65904;52.278;20.972;2023-01-25T12:13:27;0.00;95.80
76967;DHT22;65904;52.278;20.972;2023-01-25T12:16:24;0.00;95.80
76967;DHT22;65904;52.278;20.972;2023-01-25T12:22:45;0.00;95.80
76967;DHT22;65904;52.278;20.972;2023-01-25T12:25:43;-0.10;95.90
76967;DHT22;65904;52.278;20.972;2023-01-25T12:28:40;-0.10;96.10
76967;DHT22;65904;52.278;20.972;2023-01-25T12:31:34;0.00;95.90
76967;DHT22;65904;52.278;20.972;2023-01-25T12:34:26;0.00;95.80
76967;DHT22;65904;52.278;20.972;2023-01-25T12:37:18;-0.10;96.10
76967;DHT22;65904;52.278;20.972;2023-01-25T12:40:12;-0.10;95.80
76967;DHT22;65904;52.278;20.972;2023-01-25T12:43:00;-0.10;95.90
76967;DHT22;65904;52.278;20.972;2023-01-25T12:45:49;0.00;95.80
76967;DHT22;65904;52.278;20.972;2023-01-25T12:48:40;-0.10;95.80
76967;DHT22;65904;52.278;20.972;2023-01-25T12:51:34;-0.10;95.80
76967;DHT22;65904;52.278;20.972;2023-01-25T12:54:26;-0.10;96.10
76967;DHT22;65904;52.278;20.972;2023-01-25T12:57:20;0.00;95.80
76967;DHT22;65904;52.278;20.972;2023-01-25T13:00:17;0.00;95.90
76967;DHT22;65904;52.278;20.972;2023-01-25T13:03:20;0.00;95.90
76967;DHT22;65904;52.278;20.972;2023-01-25T13:06:16;0.10;96.00
76967;DHT22;65904;52.278;20.972;2023-01-25T13:09:06;0.10;95.90
76967;DHT22;65904;52.278;20.972;2023-01-25T13:11:55;0.10;96.00
76967;DHT22;65904;52.278;20.972;2023-01-25T13:14:41;0.20;95.90
76967;DHT22;65904;52.278;20.972;2023-01-25T13:17:31;0.20;95.80
76967;DHT22;65904;52.278;20.972;2023-01-25T13:20:49;0.30;95.60
76967;DHT22;65904;52.278;20.972;2023-01-25T13:23:37;0.30;95.60
76967;DHT22;65904;52.278;20.972;2023-01-25T13:26:46;0.40;95.50
76967;DHT22;65904;52.278;20.972;2023-01-25T13:30:01;0.40;95.50
76967;DHT22;65904;52.278;20.972;2023-01-25T13:33:00;0.30;95.60
76967;DHT22;65904;52.278;20.972;2023-01-25T13:35:49;0.30;96.30
76967;DHT22;65904;52.278;20.972;2023-01-25T13:38:35;0.30;96.00
76967;DHT22;65904;52.278;20.972;2023-01-25T13:41:22;0.30;95.80
76967;DHT22;65904;52.278;20.972;2023-01-25T13:44:19;0.30;96.00
76967;DHT22;65904;52.278;20.972;2023-01-25T13:47:11;0.20;95.80
76967;DHT22;65904;52.278;20.972;2023-01-25T13:50:04;0.20;95.80
76967;DHT22;65904;52.278;20.972;2023-01-25T13:52:58;0.20;95.90
76967;DHT22;65904;52.278;20.972;2023-01-25T13:55:47;0.20;95.90
76967;DHT22;65904;52.278;20.972;2023-01-25T13:58:35;0.20;95.90
76967;DHT22;65904;52.278;20.972;2023-01-25T14:01:30;0.20;95.90
76967;DHT22;65904;52.278;20.972;2023-01-25T14:04:17;0.20;96.00
76967;DHT22;65904;52.278;20.972;2023-01-25T14:07:03;0.20;96.20
76967;DHT22;65904;52.278;20.972;2023-01-25T14:09:55;0.20;96.10
76967;DHT22;65904;52.278;20.972;2023-01-25T14:12:42;0.20;96.30
76967;DHT22;65904;52.278;20.972;2023-01-25T14:15:31;0.20;96.40
76967;DHT22;65904;52.278;20.972;2023-01-25T14:18:19;0.10;96.40
76967;DHT22;65904;52.278;20.972;2023-01-25T14:21:11;0.10;96.60
76967;DHT22;65904;52.278;20.972;2023-01-25T14:24:08;0.10;96.70
76967;DHT22;65904;52.278;20.972;2023-01-25T14:26:56;0.10;96.80
76967;DHT22;65904;52.278;20.972;2023-01-25T14:29:46;0.10;96.90
76967;DHT22;65904;52.278;20.972;2023-01-25T14:32:32;0.10;97.00
76967;DHT22;65904;52.278;20.972;2023-01-25T14:35:38;0.00;97.10
76967;DHT22;65904;52.278;20.972;2023-01-25T14:38:31;0.00;97.20
76967;DHT22;65904;52.278;20.972;2023-01-25T14:41:20;0.00;97.20
76967;DHT22;65904;52.278;20.972;2023-01-25T14:44:12;0.00;97.30
76967;DHT22;65904;52.278;20.972;2023-01-25T14:47:21;0.00;97.50
76967;DHT22;65904;52.278;20.972;2023-01-25T14:50:32;0.00;97.50
76967;DHT22;65904;52.278;20.972;2023-01-25T14:53:20;0.00;97.50
76967;DHT22;65904;52.278;20.972;2023-01-25T14:56:12;0.00;97.50
76967;DHT22;65904;52.278;20.972;2023-01-25T14:59:03;0.10;97.50
76967;DHT22;65904;52.278;20.972;2023-01-25T15:01:53;0.10;97.40
76967;DHT22;65904;52.278;20.972;2023-01-25T15:04:56;0.10;97.50
76967;DHT22;65904;52.278;20.972;2023-01-25T15:07:46;0.10;97.50
76967;DHT22;65904;52.278;20.972;2023-01-25T15:10:33;0.10;97.50
76967;DHT22;65904;52.278;20.972;2023-01-25T15:13:22;0.10;97.50
76967;DHT22;65904;52.278;20.972;2023-01-25T15:16:09;0.10;97.30
76967;DHT22;65904;52.278;20.972;2023-01-25T15:18:56;0.10;96.90
76967;DHT22;65904;52.278;20.972;2023-01-25T15:21:42;0.10;96.90
76967;DHT22;65904;52.278;20.972;2023-01-25T15:24:28;0.10;96.70
76967;DHT22;65904;52.278;20.972;2023-01-25T15:27:16;0.10;97.00
76967;DHT22;65904;52.278;20.972;2023-01-25T15:30:03;0.00;97.10
76967;DHT22;65904;52.278;20.972;2023-01-25T15:32:49;0.00;97.10
76967;DHT22;65904;52.278;20.972;2023-01-25T15:35:37;0.00;97.40
76967;DHT22;65904;52.278;20.972;2023-01-25T15:38:23;0.00;97.40
76967;DHT22;65904;52.278;20.972;2023-01-25T15:41:10;-0.10;97.50
76967;DHT22;65904;52.278;20.972;2023-01-25T15:43:57;0.00;97.60
76967;DHT22;65904;52.278;20.972;2023-01-25T15:46:48;0.00;97.50
76967;DHT22;65904;52.278;20.972;2023-01-25T15:49:35;0.00;97.50
76967;DHT22;65904;52.278;20.972;2023-01-25T15:52:24;0.00;97.60
76967;DHT22;65904;52.278;20.972;2023-01-25T15:55:12;0.00;97.70
76967;DHT22;65904;52.278;20.972;2023-01-25T15:57:59;0.10;97.70
76967;DHT22;65904;52.278;20.972;2023-01-25T16:00:45;0.00;97.80
76967;DHT22;65904;52.278;20.972;2023-01-25T16:03:33;0.10;97.80
76967;DHT22;65904;52.278;20.972;2023-01-25T16:10:57;0.10;97.60
76967;DHT22;65904;52.278;20.972;2023-01-25T16:13:43;0.00;97.50
76967;DHT22;65904;52.278;20.972;2023-01-25T16:16:29;0.00;97.50
76967;DHT22;65904;52.278;20.972;2023-01-25T16:19:17;0.00;97.70
76967;DHT22;65904;52.278;20.972;2023-01-25T16:22:03;0.00;97.70
76967;DHT22;65904;52.278;20.972;2023-01-25T16:24:49;0.00;97.50
76967;DHT22;65904;52.278;20.972;2023-01-25T16:32:15;-0.10;97.40
76967;DHT22;65904;52.278;20.972;2023-01-25T16:39:52;0.00;97.40
76967;DHT22;65904;52.278;20.972;2023-01-25T16:42:38;-0.10;97.30
76967;DHT22;65904;52.278;20.972;2023-01-25T16:45:24;-0.10;97.40
76967;DHT22;65904;52.278;20.972;2023-01-25T16:52:50;-0.10;97.40
76967;DHT22;65904;52.278;20.972;2023-01-25T16:55:37;-0.10;97.70
76967;DHT22;65904;52.278;20.972;2023-01-25T16:58:23;0.00;97.60
76967;DHT22;65904;52.278;20.972;2023-01-25T17:01:09;-0.10;97.60
76967;DHT22;65904;52.278;20.972;2023-01-25T17:03:56;-0.10;97.60
76967;DHT22;65904;52.278;20.972;2023-01-25T17:11:17;-0.10;97.70
76967;DHT22;65904;52.278;20.972;2023-01-25T17:14:05;-0.10;97.80
76967;DHT22;65904;52.278;20.972;2023-01-25T17:30:40;-0.10;97.90
76967;DHT22;65904;52.278;20.972;2023-01-25T17:33:26;0.00;98.00
76967;DHT22;65904;52.278;20.972;2023-01-25T17:50:58;0.00;98.10
76967;DHT22;65904;52.278;20.972;2023-01-25T17:53:45;0.00;98.30
76967;DHT22;65904;52.278;20.972;2023-01-25T17:56:31;0.00;98.30
76967;DHT22;65904;52.278;20.972;2023-01-25T18:03:56;0.10;98.20
76967;DHT22;65904;52.278;20.972;2023-01-25T18:11:22;0.00;98.30
76967;DHT22;65904;52.278;20.972;2023-01-25T18:14:10;0.10;98.70
76967;DHT22;65904;52.278;20.972;2023-01-25T18:30:51;0.10;98.50
76967;DHT22;65904;52.278;20.972;2023-01-25T18:33:37;0.10;98.30
76967;DHT22;65904;52.278;20.972;2023-01-25T18:51:02;0.00;98.50
76967;DHT22;65904;52.278;20.972;2023-01-25T18:53:49;0.10;98.70
76967;DHT22;65904;52.278;20.972;2023-01-25T18:56:35;0.10;98.50
76967;DHT22;65904;52.278;20.972;2023-01-25T18:59:21;0.10;98.30
76967;DHT22;65904;52.278;20.972;2023-01-25T19:11:23;0.10;98.50
76967;DHT22;65904;52.278;20.972;2023-01-25T19:14:10;0.10;98.50
76967;DHT22;65904;52.278;20.972;2023-01-25T19:16:56;0.10;98.50
76967;DHT22;65904;52.278;20.972;2023-01-25T19:33:33;0.20;98.20
76967;DHT22;65904;52.278;20.972;2023-01-25T19:41:12;0.20;98.20
76967;DHT22;65904;52.278;20.972;2023-01-25T19:43:59;0.10;98.20
76967;DHT22;65904;52.278;20.972;2023-01-25T19:46:46;0.10;98.20
76967;DHT22;65904;52.278;20.972;2023-01-25T19:49:34;0.10;98.20